Time;durP1;ratioP1;P1;durP2;ratioP2;P2;SDS_P1;SDS_P2;PMS_P1;PMS_P2;Temp;Humidity;BMP_temperature;BMP_pressure;BME280_temperature;BME280_humidity;BME280_pressure;Samples;Min_cycle;Max_cycle;Signal;HPM_P1;HPM_P2
2023/06/26 00:01:40;;;;;;;7.55;5.93;;;;;;;-145.41;100.00;58600.66;4987367;28;20512;-73
2023/06/26 00:04:05;;;;;;;8.75;7.35;;;;;;;-145.41;100.00;58600.66;4987234;28;20034;-73
2023/06/26 00:06:30;;;;;;;7.25;6.43;;;;;;;-145.41;100.00;58600.66;4985848;28;20122;-73
2023/06/26 00:08:58;;;;;;;6.80;5.72;;;;;;;-145.41;100.00;58600.66;4987781;28;20073;-73
2023/06/26 00:11:24;;;;;;;7.07;5.75;;;;;;;-145.41;100.00;58600.66;4988426;28;20046;-73
2023/06/26 00:13:50;;;;;;;8.05;7.03;;;;;;;-145.41;100.00;58600.66;4990314;28;20113;-73
2023/06/26 00:16:15;;;;;;;8.48;6.07;;;;;;;-145.41;100.00;58600.66;4990292;28;20073;-72
2023/06/26 00:18:41;;;;;;;10.05;6.82;;;;;;;-145.41;100.00;58600.66;4970323;28;20472;-72
2023/06/26 00:21:06;;;;;;;6.80;5.57;;;;;;;-145.41;100.00;58600.66;4990046;28;20046;-72
2023/06/26 00:23:32;;;;;;;9.07;6.57;;;;;;;-145.41;100.00;58600.66;4991877;28;20084;-73
2023/06/26 00:25:58;;;;;;;6.63;5.50;;;;;;;-145.41;100.00;58600.66;4990162;28;20157;-73
2023/06/26 00:28:23;;;;;;;7.07;6.03;;;;;;;-145.41;100.00;58600.66;4992260;28;20129;-72
2023/06/26 00:30:48;;;;;;;6.97;5.85;;;;;;;-145.41;100.00;58600.66;4954430;28;20034;-73
2023/06/26 00:33:15;;;;;;;7.32;6.03;;;;;;;-145.41;100.00;58600.66;4970537;28;20042;-72
2023/06/26 00:35:40;;;;;;;8.88;7.05;;;;;;;-145.41;100.00;58600.66;4988403;28;20030;-73
2023/06/26 00:38:06;;;;;;;7.35;6.15;;;;;;;-145.41;100.00;58600.66;4987313;28;20050;-73
2023/06/26 00:40:31;;;;;;;7.10;6.20;;;;;;;-145.41;100.00;58600.66;4988128;28;20042;-73
2023/06/26 00:42:56;;;;;;;8.73;6.15;;;;;;;-145.41;100.00;58600.66;4989568;28;20178;-73
2023/06/26 00:45:21;;;;;;;8.55;5.95;;;;;;;-145.41;100.00;58600.66;4989680;28;20042;-73
2023/06/26 00:47:47;;;;;;;7.18;5.47;;;;;;;-145.41;100.00;58600.66;4972345;28;20034;-72
2023/06/26 00:50:13;;;;;;;7.93;6.50;;;;;;;-145.41;100.00;58600.66;4969938;28;20029;-73
2023/06/26 00:52:38;;;;;;;7.50;6.57;;;;;;;-145.41;100.00;58600.66;4974140;28;20497;-73
2023/06/26 00:55:05;;;;;;;9.32;6.78;;;;;;;-145.41;100.00;58600.66;4968298;28;20386;-73
2023/06/26 00:57:31;;;;;;;9.13;6.40;;;;;;;-145.41;100.00;58600.66;4988528;28;20065;-72
2023/06/26 00:59:56;;;;;;;7.10;6.05;;;;;;;-145.41;100.00;58600.66;4992225;28;20138;-73
2023/06/26 01:02:22;;;;;;;9.45;6.63;;;;;;;-145.41;100.00;58600.66;4975636;28;20034;-73
2023/06/26 01:04:50;;;;;;;6.75;5.85;;;;;;;-145.41;100.00;58600.66;4968091;28;20510;-73
2023/06/26 01:07:18;;;;;;;9.27;7.18;;;;;;;-145.41;100.00;58600.66;4991240;28;20527;-72
2023/06/26 01:09:46;;;;;;;7.90;7.10;;;;;;;-145.41;100.00;58600.66;4974638;28;20061;-73
2023/06/26 01:12:11;;;;;;;7.32;5.82;;;;;;;-145.41;100.00;58600.66;4988174;28;20114;-72
2023/06/26 01:14:37;;;;;;;6.93;5.88;;;;;;;-145.41;100.00;58600.66;4989284;28;20067;-73
2023/06/26 01:17:03;;;;;;;6.65;5.13;;;;;;;-145.41;100.00;58600.66;4989461;28;20069;-73
2023/06/26 01:19:33;;;;;;;5.55;4.95;;;;;;;-145.41;100.00;58600.66;4989036;28;20053;-73
2023/06/26 01:22:14;;;;;;;7.82;5.88;;;;;;;-145.41;100.00;58600.66;4970040;28;20038;-73
2023/06/26 01:24:44;;;;;;;6.70;5.85;;;;;;;-145.41;100.00;58600.66;4987847;28;20076;-72
2023/06/26 01:27:11;;;;;;;7.85;6.05;;;;;;;-145.41;100.00;58600.66;4989198;28;20046;-73
2023/06/26 01:29:37;;;;;;;8.32;7.25;;;;;;;-145.41;100.00;58600.66;4990665;28;20042;-73
2023/06/26 01:32:03;;;;;;;6.45;5.65;;;;;;;-145.41;100.00;58600.66;4988224;28;20034;-73
2023/06/26 01:34:29;;;;;;;8.75;6.85;;;;;;;-145.41;100.00;58600.66;4988599;28;20034;-73
2023/06/26 01:36:55;;;;;;;5.63;4.78;;;;;;;-145.41;100.00;58600.66;4988445;28;20034;-73
2023/06/26 01:39:20;;;;;;;6.47;5.20;;;;;;;-145.41;100.00;58600.66;4967492;28;20047;-73
2023/06/26 01:41:45;;;;;;;6.90;5.53;;;;;;;-145.41;100.00;58600.66;4989755;28;20038;-72
2023/06/26 01:44:29;;;;;;;7.63;6.28;;;;;;;-145.41;100.00;58600.66;4992278;28;20481;-73
2023/06/26 01:47:02;;;;;;;7.85;6.68;;;;;;;-145.41;100.00;58600.66;4986716;28;20043;-72
2023/06/26 01:49:46;;;;;;;8.93;6.75;;;;;;;-145.41;100.00;58600.66;4989699;28;20031;-73
2023/06/26 01:52:45;;;;;;;7.88;6.90;;;;;;;-145.41;100.00;58600.66;4990132;28;20031;-73
2023/06/26 01:55:23;;;;;;;9.13;7.10;;;;;;;-145.41;100.00;58600.66;4969800;28;20117;-73
2023/06/26 01:57:54;;;;;;;8.07;6.90;;;;;;;-145.41;100.00;58600.66;4973675;28;20049;-73
2023/06/26 02:00:20;;;;;;;8.45;6.28;;;;;;;-145.41;100.00;58600.66;4970748;28;20460;-73
2023/06/26 02:02:46;;;;;;;9.32;6.80;;;;;;;-145.41;100.00;58600.66;4973348;28;20092;-73
2023/06/26 02:05:13;;;;;;;8.55;6.03;;;;;;;-145.41;100.00;58600.66;4970374;28;20109;-73
2023/06/26 02:07:39;;;;;;;9.05;7.22;;;;;;;-145.41;100.00;58600.66;4974272;28;20073;-73
2023/06/26 02:10:05;;;;;;;10.60;7.30;;;;;;;-145.41;100.00;58600.66;4990854;28;20497;-72
2023/06/26 02:12:32;;;;;;;10.88;8.07;;;;;;;-145.41;100.00;58600.66;4973969;28;20030;-73
2023/06/26 02:14:57;;;;;;;10.85;8.85;;;;;;;-145.41;100.00;58600.66;4974097;28;20449;-73
2023/06/26 02:17:24;;;;;;;14.73;7.57;;;;;;;-145.41;100.00;58600.66;4969073;28;20045;-72
2023/06/26 02:19:49;;;;;;;7.95;6.32;;;;;;;-145.41;100.00;58600.66;4970625;28;20038;-73
2023/06/26 02:22:15;;;;;;;8.68;7.35;;;;;;;-145.41;100.00;58600.66;4970148;28;20117;-72
2023/06/26 02:24:42;;;;;;;8.60;6.65;;;;;;;-145.41;100.00;58600.66;4974240;28;20034;-73
2023/06/26 02:27:07;;;;;;;11.07;7.80;;;;;;;-145.41;100.00;58600.66;4985537;28;20184;-72
2023/06/26 02:29:35;;;;;;;8.15;6.72;;;;;;;-145.41;100.00;58600.66;4967625;28;20034;-72
2023/06/26 02:32:01;;;;;;;7.57;6.38;;;;;;;-145.41;100.00;58600.66;4986569;28;20033;-73
2023/06/26 02:34:26;;;;;;;8.75;6.85;;;;;;;-145.41;100.00;58600.66;4987264;28;20038;-73
2023/06/26 02:36:55;;;;;;;9.20;7.95;;;;;;;-145.41;100.00;58600.66;4968765;28;20027;-73
2023/06/26 02:39:21;;;;;;;11.07;8.00;;;;;;;-145.41;100.00;58600.66;4969469;28;20030;-73
2023/06/26 02:41:46;;;;;;;12.70;10.18;;;;;;;-145.41;100.00;58600.66;4973969;28;20041;-72
2023/06/26 02:44:12;;;;;;;9.98;7.72;;;;;;;-145.41;100.00;58600.66;4973911;28;20034;-73
2023/06/26 02:46:38;;;;;;;11.48;8.90;;;;;;;-145.41;100.00;58600.66;4974145;28;20404;-72
2023/06/26 02:49:04;;;;;;;9.05;7.35;;;;;;;-145.41;100.00;58600.66;4972774;28;20034;-73
2023/06/26 02:51:31;;;;;;;10.55;7.57;;;;;;;-145.41;100.00;58600.66;4974136;28;20500;-72
2023/06/26 02:53:59;;;;;;;10.75;7.90;;;;;;;-145.41;100.00;58600.66;4973139;28;20022;-72
2023/06/26 02:56:28;;;;;;;10.07;7.72;;;;;;;-145.41;100.00;58600.66;4973852;28;20045;-73
2023/06/26 02:58:55;;;;;;;8.95;6.85;;;;;;;-145.41;100.00;58600.66;4973175;28;20038;-73
2023/06/26 03:01:21;;;;;;;7.55;6.30;;;;;;;-145.41;100.00;58600.66;4971849;28;20114;-73
2023/06/26 03:03:48;;;;;;;8.35;6.60;;;;;;;-145.41;100.00;58600.66;4973915;28;20121;-72
2023/06/26 03:06:15;;;;;;;12.13;9.57;;;;;;;-145.41;100.00;58600.66;4973724;28;20030;-73
2023/06/26 03:08:42;;;;;;;12.82;10.30;;;;;;;-145.41;100.00;58600.66;4972922;28;20033;-73
2023/06/26 03:11:08;;;;;;;11.10;8.43;;;;;;;-145.41;100.00;58600.66;4973542;28;20088;-73
2023/06/26 03:13:35;;;;;;;11.30;9.20;;;;;;;-145.41;100.00;58600.66;4988345;28;20038;-73
2023/06/26 03:16:01;;;;;;;14.82;11.75;;;;;;;-145.41;100.00;58600.66;4990964;28;20039;-73
2023/06/26 03:18:27;;;;;;;15.07;11.80;;;;;;;-145.41;100.00;58600.66;4991163;28;20037;-73
2023/06/26 03:20:54;;;;;;;13.30;8.75;;;;;;;-145.41;100.00;58600.66;4973173;28;20034;-72
2023/06/26 03:23:20;;;;;;;11.68;9.60;;;;;;;-145.41;100.00;58600.66;4973344;28;20026;-73
2023/06/26 03:25:46;;;;;;;10.02;8.45;;;;;;;-145.41;100.00;58600.66;4973550;28;20033;-72
2023/06/26 03:28:22;;;;;;;10.90;8.27;;;;;;;-145.41;100.00;58600.66;4973553;28;20026;-73
2023/06/26 03:30:47;;;;;;;9.75;7.63;;;;;;;-145.41;100.00;58600.66;4972131;28;20457;-73
2023/06/26 03:33:14;;;;;;;10.32;8.13;;;;;;;-145.41;100.00;58600.66;4971930;28;20130;-73
2023/06/26 03:35:40;;;;;;;9.27;8.02;;;;;;;-145.41;100.00;58600.66;4973148;28;20557;-72
2023/06/26 03:38:09;;;;;;;13.88;8.85;;;;;;;-145.41;100.00;58600.66;4973578;28;20449;-73
2023/06/26 03:40:34;;;;;;;11.30;8.77;;;;;;;-145.41;100.00;58600.66;4972566;28;20046;-73
2023/06/26 03:43:01;;;;;;;11.05;9.52;;;;;;;-145.41;100.00;58600.66;4973419;28;20073;-73
2023/06/26 03:45:30;;;;;;;11.55;9.55;;;;;;;-145.41;100.00;58600.66;4976537;28;20080;-73
2023/06/26 03:47:56;;;;;;;10.85;9.23;;;;;;;-145.41;100.00;58600.66;4994171;28;20668;-73
2023/06/26 03:50:21;;;;;;;9.68;8.20;;;;;;;-145.41;100.00;58600.66;4993713;28;20069;-73
2023/06/26 03:52:46;;;;;;;13.23;9.18;;;;;;;-145.41;100.00;58600.66;4977053;28;20038;-73
2023/06/26 03:55:13;;;;;;;12.35;9.07;;;;;;;-145.41;100.00;58600.66;4960948;28;20026;-72
2023/06/26 03:57:38;;;;;;;11.77;9.77;;;;;;;-145.41;100.00;58600.66;4994079;28;20038;-73
2023/06/26 04:00:14;;;;;;;10.20;8.50;;;;;;;-145.41;100.00;58600.66;4975757;28;20452;-73
2023/06/26 04:02:42;;;;;;;11.98;10.15;;;;;;;-145.41;100.00;58600.66;4993816;28;20038;-73
2023/06/26 04:05:07;;;;;;;13.40;11.05;;;;;;;-145.41;100.00;58600.66;4976663;28;20081;-72
2023/06/26 04:07:34;;;;;;;11.70;10.23;;;;;;;-145.41;100.00;58600.66;4976328;28;20022;-72
2023/06/26 04:09:59;;;;;;;13.98;9.38;;;;;;;-145.41;100.00;58600.66;4975954;28;20031;-73
2023/06/26 04:12:26;;;;;;;11.50;8.98;;;;;;;-145.41;100.00;58600.66;4976641;28;20493;-73
2023/06/26 04:14:51;;;;;;;11.07;8.38;;;;;;;-145.41;100.00;58600.66;4993745;28;20046;-73
2023/06/26 04:17:16;;;;;;;11.43;8.48;;;;;;;-145.41;100.00;58600.66;4992659;28;20049;-73
2023/06/26 04:19:42;;;;;;;12.05;8.23;;;;;;;-145.41;100.00;58600.66;4993254;28;20629;-73
2023/06/26 04:22:07;;;;;;;9.63;8.32;;;;;;;-145.41;100.00;58600.66;4994080;28;20065;-73
2023/06/26 04:24:32;;;;;;;9.90;8.77;;;;;;;-145.41;100.00;58600.66;4993086;28;20041;-73
2023/06/26 04:26:58;;;;;;;12.43;8.77;;;;;;;-145.41;100.00;58600.66;4993670;28;20070;-73
2023/06/26 04:29:26;;;;;;;13.35;9.07;;;;;;;-145.41;100.00;58600.66;4974782;28;20039;-73
2023/06/26 04:31:52;;;;;;;12.25;9.73;;;;;;;-145.41;100.00;58600.66;4976232;28;20034;-73
2023/06/26 04:34:17;;;;;;;11.55;8.90;;;;;;;-145.41;100.00;58600.66;4959676;28;20412;-73
2023/06/26 04:36:47;;;;;;;10.40;9.30;;;;;;;-145.41;100.00;58600.66;4993722;28;20030;-73
2023/06/26 04:39:14;;;;;;;9.75;8.40;;;;;;;-145.41;100.00;58600.66;4989692;28;20088;-73
2023/06/26 04:41:39;;;;;;;9.60;8.52;;;;;;;-145.41;100.00;58600.66;4993520;28;20038;-72
2023/06/26 04:44:05;;;;;;;10.90;8.98;;;;;;;-145.41;100.00;58600.66;4993193;28;20038;-73
2023/06/26 04:46:30;;;;;;;12.85;10.82;;;;;;;-145.41;100.00;58600.66;4993177;28;20026;-73
2023/06/26 04:48:57;;;;;;;10.43;9.10;;;;;;;-145.41;100.00;58600.66;4992744;28;20045;-72
2023/06/26 04:51:24;;;;;;;11.20;9.55;;;;;;;-145.41;100.00;58600.66;4993503;28;20088;-73
2023/06/26 04:53:49;;;;;;;11.05;8.65;;;;;;;-145.41;100.00;58600.66;4975474;28;20040;-73
2023/06/26 04:56:14;;;;;;;11.70;9.77;;;;;;;-145.41;100.00;58600.66;4990382;28;20117;-73
2023/06/26 04:58:40;;;;;;;12.45;9.68;;;;;;;-145.41;100.00;58600.66;4992548;28;20092;-73
2023/06/26 05:01:06;;;;;;;13.00;9.07;;;;;;;-145.41;100.00;58600.66;4991945;28;20035;-73
2023/06/26 05:03:32;;;;;;;8.75;7.38;;;;;;;-145.41;100.00;58600.66;4975428;28;20041;-73
2023/06/26 05:05:57;;;;;;;9.13;7.57;;;;;;;-145.41;100.00;58600.66;4993099;28;20493;-73
2023/06/26 05:08:24;;;;;;;9.60;7.40;;;;;;;-145.41;100.00;58600.66;4992901;28;20421;-73
2023/06/26 05:10:50;;;;;;;10.60;7.13;;;;;;;-145.41;100.00;58600.66;4992581;28;20508;-72
2023/06/26 05:13:17;;;;;;;13.30;9.27;;;;;;;-145.41;100.00;58600.66;4992557;28;20057;-73
2023/06/26 05:15:44;;;;;;;12.70;11.20;;;;;;;-145.41;100.00;58600.66;4992916;28;20030;-73
2023/06/26 05:18:10;;;;;;;13.50;10.77;;;;;;;-145.41;100.00;58600.66;4992558;28;20046;-73
2023/06/26 05:20:36;;;;;;;9.55;7.90;;;;;;;-145.41;100.00;58600.66;4991949;28;20478;-73
2023/06/26 05:23:04;;;;;;;12.90;9.57;;;;;;;-145.41;100.00;58600.66;4992754;28;20401;-73
2023/06/26 05:25:31;;;;;;;9.07;8.18;;;;;;;-145.41;100.00;58600.66;4991971;28;20035;-73
2023/06/26 05:27:58;;;;;;;13.25;10.45;;;;;;;-145.41;100.00;58600.66;4992559;28;20030;-73
2023/06/26 05:30:27;;;;;;;15.68;12.35;;;;;;;-145.41;100.00;58600.66;4971526;28;20486;-73
2023/06/26 05:32:53;;;;;;;12.73;9.00;;;;;;;-145.41;100.00;58600.66;4992665;28;20030;-73
2023/06/26 05:35:22;;;;;;;14.23;10.57;;;;;;;-145.41;100.00;58600.66;4992193;28;20120;-73
2023/06/26 05:38:09;;;;;;;11.30;8.73;;;;;;;-145.41;100.00;58600.66;4991575;28;20033;-73
2023/06/26 05:40:35;;;;;;;10.48;6.40;;;;;;;-145.41;100.00;58600.66;4971896;28;20050;-73
2023/06/26 05:43:00;;;;;;;9.52;6.30;;;;;;;-145.41;100.00;58600.66;4992312;28;20034;-73
2023/06/26 05:45:26;;;;;;;11.05;8.40;;;;;;;-145.41;100.00;58600.66;4992232;28;20038;-73
2023/06/26 05:47:51;;;;;;;10.85;7.75;;;;;;;-145.41;100.00;58600.66;4992112;28;20045;-73
2023/06/26 05:50:18;;;;;;;13.10;9.60;;;;;;;-145.41;100.00;58600.66;4991521;28;20030;-72
2023/06/26 05:52:44;;;;;;;9.13;7.30;;;;;;;-145.41;100.00;58600.66;4989581;28;20035;-73
2023/06/26 05:55:10;;;;;;;9.88;8.65;;;;;;;-145.41;100.00;58600.66;4990907;28;20057;-73
2023/06/26 05:57:37;;;;;;;9.63;8.63;;;;;;;-145.41;100.00;58600.66;4992265;28;20038;-73
2023/06/26 06:00:06;;;;;;;9.38;6.18;;;;;;;-145.41;100.00;58600.66;4991391;28;20046;-73
2023/06/26 06:02:40;;;;;;;10.63;8.48;;;;;;;-145.41;100.00;58600.66;4975134;28;20041;-73
2023/06/26 06:05:06;;;;;;;10.88;9.77;;;;;;;-145.41;100.00;58600.66;4991205;28;20030;-73
2023/06/26 06:07:35;;;;;;;12.50;10.30;;;;;;;-145.41;100.00;58600.66;4991714;28;20038;-73
2023/06/26 06:10:02;;;;;;;13.30;10.00;;;;;;;-145.41;100.00;58600.66;4986074;28;20045;-73
2023/06/26 06:12:28;;;;;;;11.93;9.77;;;;;;;-145.41;100.00;58600.66;4961416;28;20557;-73
2023/06/26 06:14:53;;;;;;;7.18;5.50;;;;;;;-145.41;100.00;58600.66;4985509;28;20112;-73
2023/06/26 06:17:22;;;;;;;13.88;9.77;;;;;;;-145.41;100.00;58600.66;4991837;28;20485;-73
2023/06/26 06:19:47;;;;;;;10.63;8.32;;;;;;;-145.41;100.00;58600.66;4990813;28;20544;-73
2023/06/26 06:22:13;;;;;;;12.82;7.07;;;;;;;-145.41;100.00;58600.66;4991996;28;20113;-73
2023/06/26 06:24:38;;;;;;;9.52;6.97;;;;;;;-145.41;100.00;58600.66;4991180;28;20511;-73
2023/06/26 06:27:04;;;;;;;11.70;6.35;;;;;;;-145.41;100.00;58600.66;4971631;28;20049;-73
2023/06/26 06:29:29;;;;;;;9.43;6.43;;;;;;;-145.41;100.00;58600.66;4991044;28;20153;-73
2023/06/26 06:31:54;;;;;;;9.20;5.43;;;;;;;-145.41;100.00;58600.66;4973786;28;20497;-73
2023/06/26 06:34:20;;;;;;;9.02;8.13;;;;;;;-145.41;100.00;58600.66;4991247;28;20546;-73
2023/06/26 06:36:46;;;;;;;9.48;7.90;;;;;;;-145.41;100.00;58600.66;4991684;28;20441;-73
2023/06/26 06:39:11;;;;;;;8.48;5.95;;;;;;;-145.41;100.00;58600.66;4973960;28;20042;-72
2023/06/26 06:41:38;;;;;;;6.55;5.10;;;;;;;-145.41;100.00;58600.66;4991480;28;20420;-73
2023/06/26 06:44:05;;;;;;;8.25;5.93;;;;;;;-145.41;100.00;58600.66;4989229;28;20038;-73
2023/06/26 06:46:30;;;;;;;8.25;6.03;;;;;;;-145.41;100.00;58600.66;4991186;28;20105;-73
2023/06/26 06:48:56;;;;;;;8.95;4.88;;;;;;;-145.41;100.00;58600.66;4990374;28;20077;-72
2023/06/26 06:51:22;;;;;;;8.43;5.45;;;;;;;-145.41;100.00;58600.66;4991143;28;20038;-73
2023/06/26 06:53:47;;;;;;;6.47;5.32;;;;;;;-145.41;100.00;58600.66;4991061;28;20541;-73
2023/06/26 06:56:13;;;;;;;9.60;7.07;;;;;;;-145.41;100.00;58600.66;4990851;28;20125;-73
2023/06/26 06:58:38;;;;;;;8.98;5.60;;;;;;;-145.41;100.00;58600.66;4991267;28;20065;-72
2023/06/26 07:01:04;;;;;;;8.02;5.57;;;;;;;-145.41;100.00;58600.66;4986881;28;20432;-73
2023/06/26 07:03:29;;;;;;;8.38;5.70;;;;;;;-145.41;100.00;58600.66;4991294;28;20046;-73
2023/06/26 07:05:55;;;;;;;7.80;5.57;;;;;;;-145.41;100.00;58600.66;4990335;28;20114;-73
2023/06/26 07:08:21;;;;;;;7.03;5.63;;;;;;;-145.41;100.00;58600.66;4991112;28;20507;-73
2023/06/26 07:10:46;;;;;;;8.25;6.03;;;;;;;-145.41;100.00;58600.66;4990587;28;20038;-73
2023/06/26 07:13:11;;;;;;;7.93;6.60;;;;;;;-145.41;100.00;58600.66;4991223;28;20066;-73
2023/06/26 07:15:37;;;;;;;8.25;6.15;;;;;;;-145.41;100.00;58600.66;4987718;28;20034;-73
2023/06/26 07:18:02;;;;;;;9.35;6.10;;;;;;;-145.41;100.00;58600.66;4994485;28;20041;-73
2023/06/26 07:20:27;;;;;;;7.90;5.70;;;;;;;-145.41;100.00;58600.66;4991442;28;20046;-74
2023/06/26 07:22:53;;;;;;;10.77;7.90;;;;;;;-145.41;100.00;58600.66;4994740;28;20081;-73
2023/06/26 07:25:18;;;;;;;9.55;6.90;;;;;;;-145.41;100.00;58600.66;4994853;28;20095;-73
2023/06/26 07:27:44;;;;;;;7.47;5.30;;;;;;;-145.41;100.00;58600.66;4994050;28;20026;-73
2023/06/26 07:30:10;;;;;;;9.63;5.85;;;;;;;-145.41;100.00;58600.66;4993220;28;20092;-74
2023/06/26 07:32:36;;;;;;;6.68;5.13;;;;;;;-145.41;100.00;58600.66;4994840;28;20076;-74
2023/06/26 07:35:01;;;;;;;6.95;5.30;;;;;;;-145.41;100.00;58600.66;4993687;28;20034;-73
2023/06/26 07:37:27;;;;;;;5.50;4.53;;;;;;;-145.41;100.00;58600.66;4993130;28;20038;-73
2023/06/26 07:39:52;;;;;;;7.32;5.78;;;;;;;-145.41;100.00;58600.66;4993032;28;20042;-73
2023/06/26 07:42:17;;;;;;;7.97;5.05;;;;;;;-145.41;100.00;58600.66;4993431;28;20038;-73
2023/06/26 07:44:43;;;;;;;8.05;6.65;;;;;;;-145.41;100.00;58600.66;4975762;28;20121;-73
2023/06/26 07:47:09;;;;;;;7.55;6.38;;;;;;;-145.41;100.00;58600.66;4993317;28;20034;-73
2023/06/26 07:49:34;;;;;;;9.30;6.82;;;;;;;-145.41;100.00;58600.66;4992161;28;20027;-73
2023/06/26 07:52:00;;;;;;;8.25;6.13;;;;;;;-145.41;100.00;58600.66;4993346;28;20049;-73
2023/06/26 07:54:25;;;;;;;6.95;4.90;;;;;;;-145.41;100.00;58600.66;4993437;28;20038;-73
2023/06/26 07:57:01;;;;;;;6.18;4.80;;;;;;;-145.41;100.00;58600.66;4992660;28;20035;-73
2023/06/26 07:59:28;;;;;;;5.65;4.07;;;;;;;-145.41;100.00;58600.66;4992564;28;20053;-73
2023/06/26 08:01:55;;;;;;;7.97;6.40;;;;;;;-145.41;100.00;58600.66;4993283;28;20496;-73
2023/06/26 08:04:23;;;;;;;6.88;4.32;;;;;;;-145.41;100.00;58600.66;4993101;28;20045;-73
2023/06/26 08:06:50;;;;;;;6.38;4.80;;;;;;;-145.41;100.00;58600.66;4991349;28;20035;-73
2023/06/26 08:09:16;;;;;;;8.90;7.68;;;;;;;-145.41;100.00;58600.66;4991242;28;20038;-73
2023/06/26 08:11:42;;;;;;;10.23;6.05;;;;;;;-145.41;100.00;58600.66;4993086;28;20027;-73
2023/06/26 08:14:08;;;;;;;9.13;7.35;;;;;;;-145.41;100.00;58600.66;4972994;28;20117;-73
2023/06/26 08:16:33;;;;;;;6.65;5.15;;;;;;;-145.41;100.00;58600.66;4974965;28;20504;-73
2023/06/26 08:18:58;;;;;;;7.53;5.20;;;;;;;-145.41;100.00;58600.66;4992185;28;20030;-73
2023/06/26 08:21:24;;;;;;;6.57;4.00;;;;;;;-145.41;100.00;58600.66;4991576;28;20034;-73
2023/06/26 08:23:49;;;;;;;6.03;5.15;;;;;;;-145.41;100.00;58600.66;4992339;28;20121;-73
2023/06/26 08:26:14;;;;;;;5.72;5.13;;;;;;;-145.41;100.00;58600.66;4989999;28;20088;-73
2023/06/26 08:28:39;;;;;;;6.43;5.00;;;;;;;-145.41;100.00;58600.66;4991766;28;20724;-73
2023/06/26 08:31:05;;;;;;;5.75;4.38;;;;;;;-145.41;100.00;58600.66;4991093;28;20041;-74
2023/06/26 08:33:30;;;;;;;5.53;3.97;;;;;;;-145.41;100.00;58600.66;4992394;28;20058;-73
2023/06/26 08:35:55;;;;;;;6.70;4.70;;;;;;;-145.41;100.00;58600.66;4955923;28;1086124;-73
2023/06/26 08:38:21;;;;;;;8.07;5.07;;;;;;;-145.41;100.00;58600.66;4991477;28;20038;-73
2023/06/26 08:40:46;;;;;;;7.90;4.85;;;;;;;-145.41;100.00;58600.66;4992000;28;20041;-73
2023/06/26 08:43:12;;;;;;;6.22;5.22;;;;;;;-145.41;100.00;58600.66;4976076;28;20444;-73
2023/06/26 08:45:37;;;;;;;8.05;6.20;;;;;;;-145.41;100.00;58600.66;4992714;28;20030;-73
2023/06/26 08:48:06;;;;;;;8.13;7.32;;;;;;;-145.41;100.00;58600.66;4993394;28;20486;-73
2023/06/26 08:50:33;;;;;;;9.02;6.60;;;;;;;-145.41;100.00;58600.66;4992183;28;20113;-72
2023/06/26 08:53:23;;;;;;;8.23;7.43;;;;;;;-145.41;100.00;58600.66;4993159;28;20889;-73
2023/06/26 08:55:51;;;;;;;7.82;5.78;;;;;;;-145.41;100.00;58600.66;4991184;28;20064;-73
2023/06/26 08:58:17;;;;;;;6.18;4.97;;;;;;;-145.41;100.00;58600.66;4976024;28;20440;-73
2023/06/26 09:00:42;;;;;;;7.55;6.80;;;;;;;-145.41;100.00;58600.66;4992750;28;20042;-73
2023/06/26 09:03:09;;;;;;;7.03;5.18;;;;;;;-145.41;100.00;58600.66;4993055;28;20044;-73
2023/06/26 09:05:37;;;;;;;8.98;7.75;;;;;;;-145.41;100.00;58600.66;4993223;28;20389;-73
2023/06/26 09:08:03;;;;;;;5.30;4.22;;;;;;;-145.41;100.00;58600.66;4992949;28;20042;-73
2023/06/26 09:10:28;;;;;;;6.38;5.40;;;;;;;-145.41;100.00;58600.66;4992053;28;20092;-73
2023/06/26 09:13:01;;;;;;;7.05;5.88;;;;;;;-145.41;100.00;58600.66;4991738;28;20045;-73
2023/06/26 09:15:28;;;;;;;5.88;5.28;;;;;;;-145.41;100.00;58600.66;4990303;28;20080;-73
2023/06/26 09:17:56;;;;;;;7.57;6.60;;;;;;;-145.41;100.00;58600.66;4992823;28;20042;-73
2023/06/26 09:20:22;;;;;;;6.18;4.90;;;;;;;-145.41;100.00;58600.66;4991666;28;20030;-73
2023/06/26 09:22:48;;;;;;;6.00;5.05;;;;;;;-145.41;100.00;58600.66;4992857;28;20485;-73
2023/06/26 09:25:13;;;;;;;7.38;5.00;;;;;;;-145.41;100.00;58600.66;4992478;28;20030;-73
2023/06/26 09:27:39;;;;;;;5.45;3.78;;;;;;;-145.41;100.00;58600.66;4975347;28;20042;-73
2023/06/26 09:30:09;;;;;;;6.63;5.43;;;;;;;-145.41;100.00;58600.66;4973421;28;20038;-73
2023/06/26 09:32:37;;;;;;;11.45;8.38;;;;;;;-145.41;100.00;58600.66;4991208;28;20034;-73
2023/06/26 09:35:03;;;;;;;8.02;4.95;;;;;;;-145.41;100.00;58600.66;4992036;28;20538;-73
2023/06/26 09:37:29;;;;;;;7.88;5.97;;;;;;;-145.41;100.00;58600.66;4992403;28;20187;-73
2023/06/26 09:39:55;;;;;;;12.52;7.75;;;;;;;-145.41;100.00;58600.66;4991534;28;20113;-72
2023/06/26 09:42:20;;;;;;;6.50;5.55;;;;;;;-145.41;100.00;58600.66;4992117;28;20034;-73
2023/06/26 09:44:47;;;;;;;7.32;6.53;;;;;;;-145.41;100.00;58600.66;4992359;28;20058;-74
2023/06/26 09:47:16;;;;;;;10.23;7.35;;;;;;;-145.41;100.00;58600.66;4992086;28;20501;-73
2023/06/26 09:49:42;;;;;;;6.03;5.30;;;;;;;-145.41;100.00;58600.66;4991322;28;20054;-73
2023/06/26 09:52:08;;;;;;;5.07;4.13;;;;;;;-145.41;100.00;58600.66;4992125;28;20404;-73
2023/06/26 09:54:35;;;;;;;6.15;4.30;;;;;;;-145.41;100.00;58600.66;4992311;28;20125;-73
2023/06/26 09:57:11;;;;;;;8.07;3.72;;;;;;;-145.41;100.00;58600.66;4972973;28;20034;-74
2023/06/26 09:59:37;;;;;;;5.50;4.65;;;;;;;-145.41;100.00;58600.66;4990134;28;20038;-73
2023/06/26 10:02:02;;;;;;;6.50;5.55;;;;;;;-145.41;100.00;58600.66;4992289;28;20030;-73
2023/06/26 10:04:28;;;;;;;4.80;4.20;;;;;;;-145.41;100.00;58600.66;4991373;28;20034;-73
2023/06/26 10:06:58;;;;;;;10.07;5.50;;;;;;;-145.41;100.00;58600.66;4991926;28;20041;-73
2023/06/26 10:09:24;;;;;;;8.05;5.68;;;;;;;-145.41;100.00;58600.66;4990746;28;20045;-74
2023/06/26 10:12:04;;;;;;;13.30;6.20;;;;;;;-145.41;100.00;58600.66;4991884;28;20042;-73
2023/06/26 10:14:34;;;;;;;7.07;5.05;;;;;;;-145.41;100.00;58600.66;4991657;28;20034;-72
2023/06/26 10:17:03;;;;;;;5.20;3.75;;;;;;;-145.41;100.00;58600.66;4991383;28;20042;-73
2023/06/26 10:19:31;;;;;;;7.20;3.80;;;;;;;-145.41;100.00;58600.66;4989364;28;20026;-73
2023/06/26 10:21:58;;;;;;;5.43;3.55;;;;;;;-145.41;100.00;58600.66;4991640;28;20444;-73
2023/06/26 10:24:26;;;;;;;5.50;4.40;;;;;;;-145.41;100.00;58600.66;4990579;28;20062;-74
2023/06/26 10:27:03;;;;;;;6.07;4.93;;;;;;;-145.41;100.00;58600.66;4987809;28;20027;-73
2023/06/26 10:29:31;;;;;;;6.43;4.13;;;;;;;-145.41;100.00;58600.66;4973810;28;20068;-73
2023/06/26 10:31:59;;;;;;;5.28;3.88;;;;;;;-145.41;100.00;58600.66;4991606;28;20034;-73
2023/06/26 10:34:25;;;;;;;6.15;4.15;;;;;;;-145.41;100.00;58600.66;4990750;28;20042;-73
2023/06/26 10:37:01;;;;;;;4.88;4.13;;;;;;;-145.41;100.00;58600.66;4991399;28;20057;-73
2023/06/26 10:39:27;;;;;;;6.45;3.75;;;;;;;-145.41;100.00;58600.66;4987855;28;20172;-73
2023/06/26 10:41:55;;;;;;;9.15;6.85;;;;;;;-145.41;100.00;58600.66;4989935;28;20062;-73
2023/06/26 10:44:21;;;;;;;6.97;5.72;;;;;;;-145.41;100.00;58600.66;4991388;28;20045;-73
2023/06/26 10:46:53;;;;;;;7.82;5.40;;;;;;;-145.41;100.00;58600.66;4989947;28;20030;-72
2023/06/26 10:49:20;;;;;;;6.97;3.63;;;;;;;-145.41;100.00;58600.66;4975077;28;20072;-73
2023/06/26 10:51:48;;;;;;;4.70;3.50;;;;;;;-145.41;100.00;58600.66;4990592;28;20045;-73
2023/06/26 10:54:15;;;;;;;5.28;4.00;;;;;;;-145.41;100.00;58600.66;4973142;28;20042;-73
2023/06/26 10:56:42;;;;;;;4.97;3.58;;;;;;;-145.41;100.00;58600.66;4989388;28;20085;-73
2023/06/26 10:59:21;;;;;;;5.97;4.57;;;;;;;-145.41;100.00;58600.66;4990731;28;20049;-73
2023/06/26 11:01:56;;;;;;;6.25;4.78;;;;;;;-145.41;100.00;58600.66;4990508;28;20058;-74
2023/06/26 11:04:44;;;;;;;4.60;3.50;;;;;;;-145.41;100.00;58600.66;4988216;28;20049;-73
2023/06/26 11:07:23;;;;;;;4.40;3.55;;;;;;;-145.41;100.00;58600.66;4990693;28;20041;-74